Time;durP1;ratioP1;P1;durP2;ratioP2;P2;SDS_P1;SDS_P2;PMS_P1;PMS_P2;Temp;Humidity;BMP_temperature;BMP_pressure;BME280_temperature;BME280_humidity;BME280_pressure;Samples;Min_cycle;Max_cycle;Signal;HPM_P1;HPM_P2
2023/02/20 00:00:19;;;;;;;;;;;10.70;99.90;;;;;;5072904;28;19956;-67
2023/02/20 00:02:46;;;;;;;;;;;10.70;99.90;;;;;;5066589;28;19950;-65
2023/02/20 00:05:12;;;;;;;;;;;10.70;99.90;;;;;;5071170;28;19908;-68
2023/02/20 00:07:37;;;;;;;;;;;10.70;99.90;;;;;;5066824;28;19930;-66
2023/02/20 00:10:03;;;;;;;;;;;10.70;99.90;;;;;;5064375;28;19970;-63
2023/02/20 00:12:29;;;;;;;;;;;10.80;99.90;;;;;;5073426;28;20374;-64
2023/02/20 00:14:55;;;;;;;;;;;10.80;99.90;;;;;;5066505;28;19920;-66
2023/02/20 00:17:20;;;;;;;;;;;11.00;99.90;;;;;;5071466;28;19913;-68
2023/02/20 00:19:46;;;;;;;;;;;11.00;99.90;;;;;;5069775;28;19935;-68
2023/02/20 00:22:11;;;;;;;;;;;11.00;99.90;;;;;;5083166;28;20379;-68
2023/02/20 00:24:37;;;;;;;;;;;11.00;99.90;;;;;;5073996;28;19919;-68
2023/02/20 00:27:03;;;;;;;;;;;10.90;99.90;;;;;;5073496;28;19923;-65
2023/02/20 00:29:28;;;;;;;;;;;10.80;99.90;;;;;;5078797;28;19908;-68
2023/02/20 00:31:55;;;;;;;;;;;10.80;99.90;;;;;;5074060;28;19927;-65
2023/02/20 00:34:22;;;;;;;;;;;10.80;99.90;;;;;;5070586;28;20050;-68
2023/02/20 00:36:48;;;;;;;;;;;10.80;99.90;;;;;;5071890;28;19991;-66
2023/02/20 00:39:14;;;;;;;;;;;10.70;99.90;;;;;;5073602;28;19959;-66
2023/02/20 00:41:39;;;;;;;;;;;10.70;99.90;;;;;;5074568;28;19915;-65
2023/02/20 00:44:05;;;;;;;;;;;10.70;99.90;;;;;;5074173;28;19991;-67
2023/02/20 00:46:31;;;;;;;;;;;10.80;99.90;;;;;;5073362;28;19943;-67
2023/02/20 00:48:56;;;;;;;;;;;10.90;99.90;;;;;;5072674;28;19908;-63
2023/02/20 00:51:22;;;;;;;;;;;10.80;99.90;;;;;;5076176;28;19921;-64
2023/02/20 00:53:48;;;;;;;;;;;10.80;99.90;;;;;;5073265;28;19912;-65
2023/02/20 00:56:13;;;;;;;;;;;10.80;99.90;;;;;;5074392;28;19912;-67
2023/02/20 00:58:39;;;;;;;;;;;10.80;99.90;;;;;;5076680;28;19913;-67
2023/02/20 01:01:05;;;;;;;;;;;10.80;99.90;;;;;;5055437;28;19921;-66
2023/02/20 01:03:31;;;;;;;;;;;11.00;99.90;;;;;;5052604;28;19919;-67
2023/02/20 01:05:56;;;;;;;;;;;11.00;99.90;;;;;;5057300;28;20270;-67
2023/02/20 01:08:22;;;;;;;;;;;10.90;99.90;;;;;;5054869;28;19921;-66
2023/02/20 01:10:48;;;;;;;;;;;10.80;99.90;;;;;;5055020;28;19913;-68
2023/02/20 01:13:13;;;;;;;;;;;10.80;99.90;;;;;;5053153;28;19925;-67
2023/02/20 01:15:39;;;;;;;;;;;10.70;99.90;;;;;;5052925;28;20365;-68
2023/02/20 01:18:04;;;;;;;;;;;10.80;99.90;;;;;;5054541;28;19936;-68
2023/02/20 01:20:30;;;;;;;;;;;10.70;99.90;;;;;;5055850;28;19919;-68
2023/02/20 01:22:56;;;;;;;;;;;10.70;99.90;;;;;;5056660;28;20417;-68
2023/02/20 01:25:22;;;;;;;;;;;10.70;99.90;;;;;;5046331;28;21761;-65
2023/02/20 01:27:47;;;;;;;;;;;10.70;99.90;;;;;;5058179;28;19919;-66
2023/02/20 01:30:13;;;;;;;;;;;10.80;99.90;;;;;;5056241;28;19923;-67
2023/02/20 01:32:39;;;;;;;;;;;10.80;99.90;;;;;;5053213;28;20771;-70
2023/02/20 01:35:05;;;;;;;;;;;10.80;99.90;;;;;;5054008;28;20058;-68
2023/02/20 01:37:31;;;;;;;;;;;10.80;99.90;;;;;;5053992;28;19924;-66
2023/02/20 01:39:57;;;;;;;;;;;10.70;99.90;;;;;;5066393;28;19932;-66
2023/02/20 01:42:23;;;;;;;;;;;10.80;99.90;;;;;;5054018;28;19952;-67
2023/02/20 01:44:49;;;;;;;;;;;11.00;99.90;;;;;;5056800;28;20161;-68
2023/02/20 01:47:16;;;;;;;;;;;11.00;99.90;;;;;;5057313;28;20011;-68
2023/02/20 01:49:47;;;;;;;;;;;10.80;99.90;;;;;;5051879;28;19939;-68
2023/02/20 01:52:16;;;;;;;;;;;10.60;99.90;;;;;;5045662;28;19916;-65
2023/02/20 01:54:42;;;;;;;;;;;10.60;99.90;;;;;;5049851;28;20260;-67
2023/02/20 01:57:12;;;;;;;;;;;10.60;99.90;;;;;;5056520;28;19916;-68
2023/02/20 01:59:39;;;;;;;;;;;10.50;99.90;;;;;;5055540;28;19913;-66
2023/02/20 02:02:05;;;;;;;;;;;10.60;99.90;;;;;;5055102;28;22043;-61
2023/02/20 02:04:32;;;;;;;;;;;10.60;99.90;;;;;;5061622;28;19916;-66
2023/02/20 02:06:57;;;;;;;;;;;10.70;99.90;;;;;;5054715;28;19917;-67
2023/02/20 02:09:35;;;;;;;;;;;10.70;99.90;;;;;;5052743;28;19917;-65
2023/02/20 02:12:01;;;;;;;;;;;10.60;99.90;;;;;;5051427;28;20323;-65
2023/02/20 02:14:27;;;;;;;;;;;10.60;99.90;;;;;;5052954;28;20004;-67
2023/02/20 02:16:52;;;;;;;;;;;10.60;99.90;;;;;;5053201;28;19933;-67
2023/02/20 02:19:37;;;;;;;;;;;10.70;99.90;;;;;;5053329;28;19920;-68
2023/02/20 02:22:16;;;;;;;;;;;10.70;99.90;;;;;;5066076;28;20171;-67
2023/02/20 02:24:50;;;;;;;;;;;10.70;99.90;;;;;;5073741;28;20310;-65
2023/02/20 02:27:27;;;;;;;;;;;10.80;99.90;;;;;;5053023;28;19913;-67
2023/02/20 02:29:52;;;;;;;;;;;10.70;99.90;;;;;;5053225;28;19917;-68
2023/02/20 02:32:21;;;;;;;;;;;10.60;99.90;;;;;;5050183;28;20252;-66
2023/02/20 02:35:05;;;;;;;;;;;10.60;99.90;;;;;;5052655;28;20413;-64
2023/02/20 02:37:51;;;;;;;;;;;10.60;99.90;;;;;;5052080;28;19912;-67
2023/02/20 02:40:20;;;;;;;;;;;10.50;99.90;;;;;;5050066;28;19913;-68
2023/02/20 02:42:51;;;;;;;;;;;10.50;99.90;;;;;;5060616;28;19997;-64
2023/02/20 02:45:22;;;;;;;;;;;10.40;99.90;;;;;;5063740;28;20000;-67
2023/02/20 02:47:53;;;;;;;;;;;10.50;99.90;;;;;;5054450;28;19917;-64
2023/02/20 02:50:24;;;;;;;;;;;10.40;99.90;;;;;;5050702;28;20007;-67
2023/02/20 02:52:50;;;;;;;;;;;10.40;99.90;;;;;;5052752;28;19964;-66
2023/02/20 02:55:21;;;;;;;;;;;10.30;99.90;;;;;;5062853;28;20327;-66
2023/02/20 02:57:46;;;;;;;;;;;10.50;99.90;;;;;;5074061;28;19920;-64
2023/02/20 03:00:24;;;;;;;;;;;10.60;99.90;;;;;;5074782;28;20298;-66
2023/02/20 03:02:52;;;;;;;;;;;10.60;99.90;;;;;;5073225;28;19909;-66
2023/02/20 03:05:20;;;;;;;;;;;10.70;99.90;;;;;;5072750;28;19999;-67
2023/02/20 03:07:47;;;;;;;;;;;10.70;99.90;;;;;;5072503;28;19963;-67
2023/02/20 03:10:19;;;;;;;;;;;10.60;99.90;;;;;;5067927;28;20387;-64
2023/02/20 03:12:47;;;;;;;;;;;10.60;99.90;;;;;;5052880;28;19916;-65
2023/02/20 03:15:35;;;;;;;;;;;10.60;99.90;;;;;;5059890;28;19916;-64
2023/02/20 03:18:00;;;;;;;;;;;10.50;99.90;;;;;;5067866;28;19917;-67
2023/02/20 03:20:26;;;;;;;;;;;10.50;99.90;;;;;;5053090;28;19920;-67
2023/02/20 03:22:54;;;;;;;;;;;10.40;99.90;;;;;;5050370;28;19939;-67
2023/02/20 03:25:41;;;;;;;;;;;10.40;99.90;;;;;;5055123;28;19998;-68
2023/02/20 03:28:12;;;;;;;;;;;10.40;99.90;;;;;;5066684;28;20023;-68
2023/02/20 03:30:47;;;;;;;;;;;10.30;99.90;;;;;;5056040;28;19917;-68
2023/02/20 03:44:23;;;;;;;;;;;10.20;99.90;;;;;;5066023;28;19965;-68
2023/02/20 03:46:50;;;;;;;;;;;10.30;99.90;;;;;;5060548;28;19913;-67
2023/02/20 03:49:18;;;;;;;;;;;10.40;99.90;;;;;;5059055;28;19912;-66
2023/02/20 03:51:44;;;;;;;;;;;10.30;99.90;;;;;;5065422;28;19924;-67
2023/02/20 03:54:15;;;;;;;;;;;10.20;99.90;;;;;;5068965;28;19916;-68
2023/02/20 03:56:42;;;;;;;;;;;10.20;99.90;;;;;;5065002;28;19913;-67
2023/02/20 03:59:12;;;;;;;;;;;10.20;99.90;;;;;;5058964;28;19916;-67
2023/02/20 04:01:39;;;;;;;;;;;10.10;99.90;;;;;;5055288;28;19970;-68
2023/02/20 04:04:05;;;;;;;;;;;10.20;99.90;;;;;;5057298;28;20375;-66
2023/02/20 04:06:32;;;;;;;;;;;10.20;99.90;;;;;;5054423;28;19921;-67
2023/02/20 04:09:00;;;;;;;;;;;10.10;99.90;;;;;;5055456;28;20389;-67
2023/02/20 04:11:35;;;;;;;;;;;10.20;99.90;;;;;;5056535;28;20565;-66
2023/02/20 04:14:01;;;;;;;;;;;10.10;99.90;;;;;;5054012;28;19916;-69
2023/02/20 04:16:27;;;;;;;;;;;10.20;99.90;;;;;;5055936;28;19913;-67
2023/02/20 04:18:52;;;;;;;;;;;10.20;99.90;;;;;;5079677;28;20302;-64
2023/02/20 04:21:22;;;;;;;;;;;10.20;99.90;;;;;;5068927;28;20007;-68
2023/02/20 04:23:56;;;;;;;;;;;10.20;99.90;;;;;;5054515;28;21446;-68
2023/02/20 04:26:23;;;;;;;;;;;10.00;99.90;;;;;;5059879;28;19959;-66
2023/02/20 04:28:49;;;;;;;;;;;10.10;99.90;;;;;;5068734;28;19927;-68
2023/02/20 04:31:15;;;;;;;;;;;10.10;99.90;;;;;;5054780;28;19912;-65
2023/02/20 04:33:41;;;;;;;;;;;10.10;99.90;;;;;;5055231;28;19924;-68
2023/02/20 04:36:07;;;;;;;;;;;10.10;99.90;;;;;;5067857;28;19919;-64
2023/02/20 04:38:33;;;;;;;;;;;10.00;99.90;;;;;;5084192;28;19919;-63
2023/02/20 04:40:58;;;;;;;;;;;10.10;99.90;;;;;;5081261;28;19908;-67
2023/02/20 04:43:24;;;;;;;;;;;10.20;99.90;;;;;;5095760;28;19909;-67
2023/02/20 04:45:50;;;;;;;;;;;10.10;99.90;;;;;;5095312;28;19954;-65
2023/02/20 04:48:15;;;;;;;;;;;10.10;99.90;;;;;;5095727;28;19945;-64
2023/02/20 04:50:41;;;;;;;;;;;10.10;99.90;;;;;;5067982;28;19920;-67
2023/02/20 04:53:07;;;;;;;;;;;10.20;99.90;;;;;;5065217;28;19931;-67
2023/02/20 04:55:32;;;;;;;;;;;10.20;99.90;;;;;;5074185;28;19916;-67
2023/02/20 04:57:58;;;;;;;;;;;10.20;99.90;;;;;;5071692;28;19958;-65
2023/02/20 05:00:25;;;;;;;;;;;10.20;99.90;;;;;;5074800;28;19909;-67
2023/02/20 05:02:50;;;;;;;;;;;10.10;99.90;;;;;;5074252;28;19914;-65
2023/02/20 05:05:19;;;;;;;;;;;10.10;99.90;;;;;;5074226;28;19908;-67
2023/02/20 05:07:45;;;;;;;;;;;10.20;99.90;;;;;;5070610;28;19924;-67
2023/02/20 05:10:19;;;;;;;;;;;10.10;99.90;;;;;;5073867;28;19939;-65
2023/02/20 05:12:45;;;;;;;;;;;10.10;99.90;;;;;;5074265;28;19912;-66
2023/02/20 05:15:10;;;;;;;;;;;10.00;99.90;;;;;;5073967;28;19924;-64
2023/02/20 05:17:36;;;;;;;;;;;10.00;99.90;;;;;;5074655;28;19915;-65
2023/02/20 05:20:03;;;;;;;;;;;9.90;99.90;;;;;;5074169;28;19966;-67
2023/02/20 05:22:29;;;;;;;;;;;9.90;99.90;;;;;;5071260;28;19938;-66
2023/02/20 05:24:54;;;;;;;;;;;9.80;99.90;;;;;;5054689;28;19917;-66
2023/02/20 05:27:21;;;;;;;;;;;9.70;99.90;;;;;;5067452;28;19966;-66
2023/02/20 05:29:48;;;;;;;;;;;9.70;99.90;;;;;;5063293;28;19921;-67
2023/02/20 05:32:15;;;;;;;;;;;9.80;99.90;;;;;;5056132;28;19979;-67
2023/02/20 05:34:41;;;;;;;;;;;9.70;99.90;;;;;;5056415;28;20286;-68
2023/02/20 05:37:07;;;;;;;;;;;9.60;99.90;;;;;;5060109;28;20823;-68
2023/02/20 05:39:32;;;;;;;;;;;9.70;99.90;;;;;;5076214;28;19948;-63
2023/02/20 05:41:58;;;;;;;;;;;9.60;99.90;;;;;;5059490;28;19927;-68
2023/02/20 05:44:24;;;;;;;;;;;9.60;99.90;;;;;;5057981;28;19951;-66
2023/02/20 05:46:50;;;;;;;;;;;9.60;99.90;;;;;;5060805;28;19927;-66
2023/02/20 05:49:16;;;;;;;;;;;9.70;99.90;;;;;;5055209;28;19916;-66
2023/02/20 05:51:42;;;;;;;;;;;9.70;99.90;;;;;;5059016;28;19912;-67
2023/02/20 05:54:08;;;;;;;;;;;9.70;99.90;;;;;;5068978;28;20293;-66
2023/02/20 05:56:33;;;;;;;;;;;9.60;99.90;;;;;;5065753;28;19917;-65
2023/02/20 05:59:00;;;;;;;;;;;9.60;99.90;;;;;;5070349;28;19912;-65
2023/02/20 06:01:29;;;;;;;;;;;9.60;99.90;;;;;;5048175;28;19919;-64
2023/02/20 06:03:55;;;;;;;;;;;9.50;99.90;;;;;;5063336;28;19913;-67
2023/02/20 06:06:21;;;;;;;;;;;9.60;99.90;;;;;;5066571;28;19920;-66
2023/02/20 06:08:47;;;;;;;;;;;9.70;99.90;;;;;;5069826;28;19912;-66
2023/02/20 06:11:13;;;;;;;;;;;9.60;99.90;;;;;;5068548;28;19912;-67
2023/02/20 06:13:43;;;;;;;;;;;9.70;99.90;;;;;;5068227;28;19920;-64
2023/02/20 06:16:09;;;;;;;;;;;9.70;99.90;;;;;;5069617;28;19913;-67
2023/02/20 06:18:38;;;;;;;;;;;9.80;99.90;;;;;;5069086;28;20421;-66
2023/02/20 06:21:10;;;;;;;;;;;9.80;99.90;;;;;;5067411;28;20397;-66
2023/02/20 06:23:39;;;;;;;;;;;9.80;99.90;;;;;;5061697;28;19913;-66
2023/02/20 06:26:05;;;;;;;;;;;9.90;99.90;;;;;;5066335;28;19913;-67
2023/02/20 06:28:31;;;;;;;;;;;9.90;99.90;;;;;;5064146;28;19935;-67
2023/02/20 06:30:57;;;;;;;;;;;10.00;99.90;;;;;;5065185;28;19921;-65
2023/02/20 06:33:22;;;;;;;;;;;9.90;99.90;;;;;;5069469;28;19916;-66
2023/02/20 06:35:48;;;;;;;;;;;9.90;99.90;;;;;;5061119;28;19925;-66
2023/02/20 06:38:14;;;;;;;;;;;9.80;99.90;;;;;;5068662;28;19932;-67
2023/02/20 06:40:39;;;;;;;;;;;9.80;99.90;;;;;;5071713;28;19947;-65
2023/02/20 06:43:05;;;;;;;;;;;9.90;99.90;;;;;;5069474;28;19939;-68
2023/02/20 06:45:31;;;;;;;;;;;9.90;99.90;;;;;;5065824;28;19912;-66
2023/02/20 06:47:57;;;;;;;;;;;9.90;99.90;;;;;;5068483;28;20301;-67
2023/02/20 06:50:22;;;;;;;;;;;9.90;99.90;;;;;;5067372;28;19913;-64
2023/02/20 06:52:48;;;;;;;;;;;9.90;99.90;;;;;;5069387;28;19916;-64
2023/02/20 06:55:14;;;;;;;;;;;9.80;99.90;;;;;;5075392;28;19919;-65
2023/02/20 06:57:40;;;;;;;;;;;9.80;99.90;;;;;;5070931;28;19912;-67
2023/02/20 07:00:06;;;;;;;;;;;9.80;99.90;;;;;;5075447;28;19963;-63
2023/02/20 07:02:31;;;;;;;;;;;10.00;99.90;;;;;;5072669;28;19912;-67
2023/02/20 07:04:57;;;;;;;;;;;10.00;99.90;;;;;;5075004;28;19923;-67
2023/02/20 07:07:23;;;;;;;;;;;10.10;99.90;;;;;;5070022;28;20127;-65
2023/02/20 07:09:49;;;;;;;;;;;10.00;99.90;;;;;;5074828;28;20015;-67
2023/02/20 07:12:14;;;;;;;;;;;10.10;99.90;;;;;;5070728;28;19913;-65
2023/02/20 07:14:40;;;;;;;;;;;10.20;99.90;;;;;;5069399;28;20024;-67
2023/02/20 07:17:06;;;;;;;;;;;10.20;99.90;;;;;;5069351;28;19920;-66
2023/02/20 07:19:32;;;;;;;;;;;10.20;99.90;;;;;;5074990;28;19912;-67
2023/02/20 07:21:57;;;;;;;;;;;10.30;99.90;;;;;;5077361;28;19916;-68
2023/02/20 07:24:23;;;;;;;;;;;10.40;99.90;;;;;;5073688;28;19927;-69
2023/02/20 07:26:49;;;;;;;;;;;10.30;99.90;;;;;;5067523;28;19966;-70
2023/02/20 07:29:14;;;;;;;;;;;10.50;99.90;;;;;;5059701;28;19962;-67
2023/02/20 07:31:40;;;;;;;;;;;10.70;99.90;;;;;;5069194;28;20829;-67
2023/02/20 07:34:05;;;;;;;;;;;10.90;99.90;;;;;;5056942;28;19925;-69
2023/02/20 07:36:31;;;;;;;;;;;11.00;99.90;;;;;;5072932;28;20031;-71
2023/02/20 07:38:58;;;;;;;;;;;11.10;99.90;;;;;;5069705;28;19912;-70
2023/02/20 07:41:25;;;;;;;;;;;11.30;99.90;;;;;;5072753;28;19969;-70
2023/02/20 07:43:51;;;;;;;;;;;11.20;99.90;;;;;;5066596;28;19912;-67
2023/02/20 07:46:16;;;;;;;;;;;11.30;99.90;;;;;;5070754;28;20463;-60
2023/02/20 07:48:42;;;;;;;;;;;11.30;99.90;;;;;;5065690;28;19912;-61
2023/02/20 07:51:08;;;;;;;;;;;11.30;99.90;;;;;;5072116;28;19913;-61
2023/02/20 07:53:33;;;;;;;;;;;11.30;99.90;;;;;;5065307;28;19921;-60
2023/02/20 07:55:59;;;;;;;;;;;11.10;99.90;;;;;;5067893;28;20563;-62
2023/02/20 07:58:25;;;;;;;;;;;11.00;99.90;;;;;;5070392;28;20366;-61
2023/02/20 08:00:52;;;;;;;;;;;11.20;99.90;;;;;;5064217;28;19976;-62
2023/02/20 08:03:18;;;;;;;;;;;11.30;99.90;;;;;;5068447;28;19917;-66
2023/02/20 08:05:44;;;;;;;;;;;11.20;99.90;;;;;;5060486;28;20123;-67
2023/02/20 08:08:10;;;;;;;;;;;11.30;99.90;;;;;;5060739;28;19913;-67
2023/02/20 08:10:36;;;;;;;;;;;11.50;99.90;;;;;;5071358;28;19912;-67
2023/02/20 08:13:01;;;;;;;;;;;11.60;99.90;;;;;;5069538;28;20054;-68
2023/02/20 08:15:27;;;;;;;;;;;11.50;99.90;;;;;;5066572;28;19914;-65
2023/02/20 08:17:53;;;;;;;;;;;11.50;99.90;;;;;;5069381;28;19923;-66
2023/02/20 08:20:19;;;;;;;;;;;11.50;99.90;;;;;;5071460;28;19916;-68
2023/02/20 08:22:45;;;;;;;;;;;11.70;99.90;;;;;;5067900;28;19916;-67
2023/02/20 08:25:11;;;;;;;;;;;11.70;99.90;;;;;;5069402;28;19912;-67
2023/02/20 08:27:40;;;;;;;;;;;12.00;99.90;;;;;;5067882;28;20470;-67
2023/02/20 08:30:06;;;;;;;;;;;12.20;99.90;;;;;;5062443;28;19919;-67
2023/02/20 08:32:31;;;;;;;;;;;12.40;99.90;;;;;;5065473;28;19916;-66
2023/02/20 08:34:57;;;;;;;;;;;12.30;99.90;;;;;;5064340;28;19919;-67
2023/02/20 08:37:22;;;;;;;;;;;12.40;99.90;;;;;;5052522;28;19924;-67
2023/02/20 08:39:48;;;;;;;;;;;12.40;99.90;;;;;;5064382;28;20330;-68
2023/02/20 08:42:16;;;;;;;;;;;12.40;99.90;;;;;;5063790;28;19964;-68
2023/02/20 08:44:42;;;;;;;;;;;12.50;99.90;;;;;;5047209;28;19925;-67
2023/02/20 08:47:08;;;;;;;;;;;12.40;99.90;;;;;;5058484;28;19920;-68
2023/02/20 08:49:33;;;;;;;;;;;12.50;99.90;;;;;;5055745;28;20310;-69
2023/02/20 08:51:59;;;;;;;;;;;12.70;99.90;;;;;;5063916;28;19998;-68
2023/02/20 08:54:25;;;;;;;;;;;12.80;99.90;;;;;;5066401;28;19913;-68
2023/02/20 08:56:50;;;;;;;;;;;12.80;99.90;;;;;;5069766;28;19989;-68
2023/02/20 08:59:16;;;;;;;;;;;12.90;99.90;;;;;;5071727;28;19908;-69
2023/02/20 09:01:42;;;;;;;;;;;12.90;99.90;;;;;;5073953;28;20272;-69
2023/02/20 09:04:09;;;;;;;;;;;13.00;99.90;;;;;;5072742;28;19911;-68
2023/02/20 09:06:35;;;;;;;;;;;12.90;99.90;;;;;;5064659;28;19959;-68
2023/02/20 09:09:01;;;;;;;;;;;13.00;99.90;;;;;;5067868;28;19958;-68
2023/02/20 09:11:27;;;;;;;;;;;13.00;99.90;;;;;;5072991;28;20296;-68
2023/02/20 09:13:52;;;;;;;;;;;13.00;99.90;;;;;;5067804;28;20011;-69
2023/02/20 09:16:19;;;;;;;;;;;13.00;99.90;;;;;;5061725;28;19948;-69
2023/02/20 09:18:45;;;;;;;;;;;13.30;99.90;;;;;;5059342;28;19912;-69
2023/02/20 09:21:12;;;;;;;;;;;13.30;99.90;;;;;;5057676;28;19918;-69
2023/02/20 09:23:37;;;;;;;;;;;13.20;99.90;;;;;;5055197;28;19944;-68
2023/02/20 09:26:03;;;;;;;;;;;13.20;99.90;;;;;;5052489;28;19925;-69
2023/02/20 09:28:29;;;;;;;;;;;13.10;99.90;;;;;;5066388;28;19912;-69
2023/02/20 09:30:56;;;;;;;;;;;13.10;99.90;;;;;;5070246;28;19908;-68
2023/02/20 09:33:22;;;;;;;;;;;13.10;99.90;;;;;;5057944;28;20393;-68
2023/02/20 09:35:51;;;;;;;;;;;13.20;99.90;;;;;;5071598;28;19913;-68
2023/02/20 09:38:17;;;;;;;;;;;13.30;99.90;;;;;;5067870;28;19948;-68
2023/02/20 09:40:43;;;;;;;;;;;13.30;99.90;;;;;;5068701;28;19958;-67
2023/02/20 09:43:14;;;;;;;;;;;13.30;99.90;;;;;;5063351;28;19916;-68
2023/02/20 09:46:02;;;;;;;;;;;13.30;99.90;;;;;;5067255;28;19973;-69
2023/02/20 09:48:34;;;;;;;;;;;13.40;99.90;;;;;;5060030;28;19995;-70
2023/02/20 09:51:18;;;;;;;;;;;13.50;99.90;;;;;;5068132;28;19913;-68
2023/02/20 09:54:01;;;;;;;;;;;13.40;99.90;;;;;;5067927;28;20022;-67
2023/02/20 09:56:30;;;;;;;;;;;13.50;99.90;;;;;;5064333;28;19921;-68
2023/02/20 09:59:07;;;;;;;;;;;13.50;99.90;;;;;;5050128;28;19913;-67
2023/02/20 10:01:34;;;;;;;;;;;13.50;99.90;;;;;;5064317;28;19912;-68
2023/02/20 10:04:12;;;;;;;;;;;13.60;99.90;;;;;;5068197;28;20004;-68
2023/02/20 10:06:37;;;;;;;;;;;13.60;99.90;;;;;;5065521;28;19927;-69
2023/02/20 10:09:05;;;;;;;;;;;13.50;99.90;;;;;;5067923;28;19917;-68
2023/02/20 10:11:49;;;;;;;;;;;13.40;99.90;;;;;;5064557;28;19912;-69
2023/02/20 10:14:21;;;;;;;;;;;13.40;99.90;;;;;;5062405;28;19978;-69
2023/02/20 10:16:50;;;;;;;;;;;13.40;99.90;;;;;;5069329;28;20286;-69
2023/02/20 10:19:40;;;;;;;;;;;13.40;99.90;;;;;;5072214;28;19908;-69
2023/02/20 10:22:12;;;;;;;;;;;13.50;99.90;;;;;;5056529;28;20488;-69
2023/02/20 10:25:02;;;;;;;;;;;13.50;99.90;;;;;;5061809;28;19912;-69
2023/02/20 10:27:50;;;;;;;;;;;13.40;99.90;;;;;;5066564;28;19913;-70
2023/02/20 10:30:26;;;;;;;;;;;13.40;99.90;;;;;;5064638;28;19970;-70
2023/02/20 10:33:01;;;;;;;;;;;13.50;99.90;;;;;;5057660;28;19916;-69
2023/02/20 10:35:33;;;;;;;;;;;13.50;99.90;;;;;;5070245;28;19908;-68
2023/02/20 10:38:02;;;;;;;;;;;13.50;99.90;;;;;;5062783;28;20361;-70
2023/02/20 10:40:33;;;;;;;;;;;13.50;99.90;;;;;;5056687;28;19916;-70
2023/02/20 10:43:02;;;;;;;;;;;13.40;99.90;;;;;;5063862;28;20354;-69
2023/02/20 10:45:36;;;;;;;;;;;13.40;99.90;;;;;;5062116;28;19919;-70
2023/02/20 10:48:06;;;;;;;;;;;13.40;99.90;;;;;;5058389;28;19912;-69
2023/02/20 10:50:51;;;;;;;;;;;13.50;99.90;;;;;;5049611;28;19966;-69
2023/02/20 10:53:27;;;;;;;;;;;13.50;99.90;;;;;;5075771;28;19952;-69
2023/02/20 10:55:59;;;;;;;;;;;13.50;99.90;;;;;;5070466;28;20372;-70
2023/02/20 10:58:41;;;;;;;;;;;13.50;99.90;;;;;;5044540;28;19970;-69
2023/02/20 11:01:11;;;;;;;;;;;13.50;99.90;;;;;;5058630;28;19912;-69
2023/02/20 11:03:56;;;;;;;;;;;13.40;99.90;;;;;;5068193;28;19912;-70
2023/02/20 11:06:24;;;;;;;;;;;13.40;99.90;;;;;;5081522;28;20420;-70
2023/02/20 11:08:49;;;;;;;;;;;13.40;99.90;;;;;;5077687;28;20023;-69
2023/02/20 11:11:20;;;;;;;;;;;13.30;99.90;;;;;;5081367;28;20007;-68
2023/02/20 11:13:45;;;;;;;;;;;13.30;99.90;;;;;;5068292;28;19916;-69
2023/02/20 11:16:19;;;;;;;;;;;13.30;99.90;;;;;;5082602;28;20282;-69
2023/02/20 11:18:45;;;;;;;;;;;13.30;99.90;;;;;;5070365;28;20421;-68
2023/02/20 11:21:31;;;;;;;;;;;13.40;99.90;;;;;;5072652;28;19963;-69
2023/02/20 11:23:57;;;;;;;;;;;13.40;99.90;;;;;;5063678;28;19916;-70
2023/02/20 11:26:30;;;;;;;;;;;13.40;99.90;;;;;;5046893;28;20429;-70
2023/02/20 11:28:58;;;;;;;;;;;13.50;99.90;;;;;;5058981;28;19913;-70
2023/02/20 11:31:24;;;;;;;;;;;13.50;99.90;;;;;;5062543;28;19963;-70
2023/02/20 11:33:50;;;;;;;;;;;13.40;99.90;;;;;;5064155;28;19982;-69
2023/02/20 11:36:36;;;;;;;;;;;13.50;99.90;;;;;;5063079;28;20382;-69
2023/02/20 11:39:12;;;;;;;;;;;13.50;99.90;;;;;;5070689;28;19952;-70
2023/02/20 11:41:38;;;;;;;;;;;13.50;99.90;;;;;;5071103;28;19909;-69
2023/02/20 11:44:06;;;;;;;;;;;13.40;99.90;;;;;;5066958;28;19935;-70
2023/02/20 11:46:31;;;;;;;;;;;13.40;99.90;;;;;;5071880;28;20252;-69
2023/02/20 11:49:08;;;;;;;;;;;13.40;99.90;;;;;;5068208;28;19952;-69
2023/02/20 11:51:45;;;;;;;;;;;13.40;99.90;;;;;;5088188;28;19916;-69
2023/02/20 11:54:17;;;;;;;;;;;13.40;99.90;;;;;;5072887;28;19952;-71
2023/02/20 11:57:04;;;;;;;;;;;13.50;99.90;;;;;;5066505;28;19916;-71
2023/02/20 11:59:37;;;;;;;;;;;13.50;99.90;;;;;;5075474;28;19995;-69
2023/02/20 12:02:11;;;;;;;;;;;13.40;99.90;;;;;;5075339;28;19913;-69
2023/02/20 12:04:36;;;;;;;;;;;13.40;99.90;;;;;;5073439;28;19912;-68
2023/02/20 12:07:20;;;;;;;;;;;13.30;99.90;;;;;;5075388;28;19916;-69
2023/02/20 12:09:47;;;;;;;;;;;13.30;99.90;;;;;;5075681;28;19908;-69
2023/02/20 12:12:13;;;;;;;;;;;13.40;99.90;;;;;;5075291;28;19915;-69
2023/02/20 12:14:40;;;;;;;;;;;13.40;99.90;;;;;;5073049;28;19916;-69
2023/02/20 12:17:18;;;;;;;;;;;13.40;99.90;;;;;;5072556;28;19916;-69
2023/02/20 12:19:55;;;;;;;;;;;13.30;99.90;;;;;;5074751;28;19916;-69
2023/02/20 12:22:34;;;;;;;;;;;13.30;99.90;;;;;;5074897;28;19923;-69
2023/02/20 12:25:08;;;;;;;;;;;13.30;99.90;;;;;;5073437;28;19966;-69
2023/02/20 12:27:33;;;;;;;;;;;13.20;99.90;;;;;;5074862;28;19919;-69
2023/02/20 12:30:14;;;;;;;;;;;13.20;99.90;;;;;;5075286;28;19909;-69
2023/02/20 12:32:55;;;;;;;;;;;13.30;99.90;;;;;;5074939;28;19912;-69
2023/02/20 12:35:31;;;;;;;;;;;13.30;99.90;;;;;;5073075;28;19908;-70
2023/02/20 12:37:59;;;;;;;;;;;13.40;99.90;;;;;;5073120;28;19924;-69
2023/02/20 12:40:40;;;;;;;;;;;13.50;99.90;;;;;;5072817;28;19913;-68
2023/02/20 12:43:06;;;;;;;;;;;13.40;99.90;;;;;;5073246;28;19913;-69
2023/02/20 12:45:40;;;;;;;;;;;13.40;99.90;;;;;;5067580;28;19909;-68
2023/02/20 12:48:06;;;;;;;;;;;13.50;99.90;;;;;;5072168;28;19912;-68
2023/02/20 12:50:38;;;;;;;;;;;13.50;99.90;;;;;;5074485;28;20524;-68
2023/02/20 12:53:09;;;;;;;;;;;13.40;99.90;;;;;;5074347;28;19951;-68
2023/02/20 12:55:34;;;;;;;;;;;13.50;99.90;;;;;;5073114;28;20088;-69
2023/02/20 12:58:03;;;;;;;;;;;13.70;99.90;;;;;;5073849;28;19962;-69
2023/02/20 13:00:32;;;;;;;;;;;13.70;99.90;;;;;;5074156;28;19915;-68
2023/02/20 13:03:01;;;;;;;;;;;13.70;99.90;;;;;;5073848;28;20324;-68
2023/02/20 13:05:27;;;;;;;;;;;13.70;99.90;;;;;;5072649;28;19916;-68
2023/02/20 13:08:00;;;;;;;;;;;13.80;99.90;;;;;;5074033;28;19920;-68
2023/02/20 13:10:31;;;;;;;;;;;13.60;99.90;;;;;;5074176;28;19916;-68
2023/02/20 13:12:57;;;;;;;;;;;13.70;99.90;;;;;;5070654;28;19931;-68
2023/02/20 13:15:35;;;;;;;;;;;13.70;99.90;;;;;;5066868;28;19919;-66
2023/02/20 13:18:09;;;;;;;;;;;13.70;99.90;;;;;;5073021;28;19962;-68
2023/02/20 13:20:38;;;;;;;;;;;13.70;99.90;;;;;;5067224;28;19908;-67
2023/02/20 13:23:05;;;;;;;;;;;13.70;99.90;;;;;;5072761;28;20414;-67
2023/02/20 13:25:30;;;;;;;;;;;13.70;99.90;;;;;;5073121;28;19908;-66
2023/02/20 13:28:19;;;;;;;;;;;13.70;99.90;;;;;;5073784;28;19920;-67
2023/02/20 13:31:05;;;;;;;;;;;13.60;99.90;;;;;;5056582;28;19981;-67
2023/02/20 13:33:31;;;;;;;;;;;13.60;99.90;;;;;;5072967;28;19917;-67
2023/02/20 13:35:57;;;;;;;;;;;13.50;99.90;;;;;;5056136;28;20720;-67
2023/02/20 13:38:23;;;;;;;;;;;13.30;99.90;;;;;;5073686;28;19919;-68
2023/02/20 13:40:55;;;;;;;;;;;13.30;99.90;;;;;;5069284;28;19912;-68
2023/02/20 13:43:21;;;;;;;;;;;13.30;99.90;;;;;;5072373;28;19912;-67
2023/02/20 13:45:47;;;;;;;;;;;13.30;99.90;;;;;;5073263;28;19909;-67
2023/02/20 13:48:16;;;;;;;;;;;13.30;99.90;;;;;;5073773;28;19962;-68
2023/02/20 13:50:42;;;;;;;;;;;13.30;99.90;;;;;;5067120;28;19912;-68
2023/02/20 13:53:07;;;;;;;;;;;13.20;99.90;;;;;;5072847;28;19934;-68
2023/02/20 13:55:33;;;;;;;;;;;13.20;99.90;;;;;;5070956;28;19913;-68
2023/02/20 13:57:58;;;;;;;;;;;13.30;99.90;;;;;;5070799;28;19913;-68
2023/02/20 14:00:32;;;;;;;;;;;13.30;99.90;;;;;;5071581;28;19908;-68
2023/02/20 14:02:57;;;;;;;;;;;13.30;99.90;;;;;;5073810;28;20324;-68
2023/02/20 14:05:28;;;;;;;;;;;13.40;99.90;;;;;;5071979;28;19908;-67
2023/02/20 14:07:53;;;;;;;;;;;13.40;99.90;;;;;;5071720;28;19948;-68
2023/02/20 14:10:31;;;;;;;;;;;13.50;99.90;;;;;;5072727;28;20275;-66
2023/02/20 14:12:59;;;;;;;;;;;13.60;99.90;;;;;;5052929;28;19917;-68
2023/02/20 14:15:26;;;;;;;;;;;13.50;99.90;;;;;;5063937;28;20288;-67
2023/02/20 14:17:52;;;;;;;;;;;13.50;99.90;;;;;;5072292;28;19917;-68
2023/02/20 14:20:21;;;;;;;;;;;13.60;99.90;;;;;;5071222;28;19919;-68
2023/02/20 14:22:49;;;;;;;;;;;13.60;99.90;;;;;;5055576;28;19920;-65
2023/02/20 14:25:20;;;;;;;;;;;13.60;99.90;;;;;;5066498;28;19914;-64
2023/02/20 14:27:46;;;;;;;;;;;13.60;99.90;;;;;;5070627;28;19913;-66
2023/02/20 14:30:14;;;;;;;;;;;13.40;99.90;;;;;;5063677;28;20406;-63
2023/02/20 14:32:47;;;;;;;;;;;13.40;99.90;;;;;;5072086;28;19923;-67
2023/02/20 14:35:31;;;;;;;;;;;13.20;99.90;;;;;;5069507;28;19938;-65
2023/02/20 14:37:57;;;;;;;;;;;13.00;99.90;;;;;;5065106;28;19912;-65